createdAt,value
2018-10-09T00:01:59.366Z,81.50
2018-10-09T00:04:27.363Z,81.60
2018-10-09T00:06:55.408Z,81.80
2018-10-09T00:09:23.414Z,82.00
2018-10-09T00:11:51.426Z,82.00
2018-10-09T00:14:19.414Z,81.90
2018-10-09T00:16:47.818Z,82.10
2018-10-09T00:19:15.898Z,82.30
2018-10-09T00:21:43.918Z,82.30
2018-10-09T00:24:11.993Z,82.40
2018-10-09T00:26:40.077Z,82.40
2018-10-09T00:29:08.097Z,82.50
2018-10-09T00:31:37.034Z,82.60
2018-10-09T00:34:05.132Z,82.70
2018-10-09T00:36:33.342Z,82.80
2018-10-09T00:39:01.433Z,83.00
2018-10-09T00:41:29.501Z,83.40
2018-10-09T00:43:58.042Z,83.40
2018-10-09T00:46:29.190Z,83.60
2018-10-09T00:48:57.352Z,83.70
2018-10-09T00:51:25.374Z,84.00
2018-10-09T00:53:53.387Z,84.10
2018-10-09T00:56:21.476Z,84.20
2018-10-09T00:58:49.553Z,84.30
2018-10-09T01:01:17.570Z,84.30
2018-10-09T01:03:45.577Z,84.30
2018-10-09T01:06:13.626Z,84.40
2018-10-09T01:08:41.623Z,84.20
2018-10-09T01:11:09.815Z,84.00
2018-10-09T01:13:37.890Z,84.10
2018-10-09T01:16:05.906Z,84.30
2018-10-09T01:18:33.915Z,84.20
2018-10-09T01:21:01.985Z,84.30
2018-10-09T01:23:30.546Z,84.30
2018-10-09T01:25:58.559Z,84.10
2018-10-09T01:28:26.812Z,84.10
2018-10-09T01:30:54.861Z,84.20
2018-10-09T01:33:23.193Z,84.10
2018-10-09T01:35:51.399Z,84.50
2018-10-09T01:38:19.412Z,84.50
2018-10-09T01:40:47.426Z,84.60
2018-10-09T01:43:15.446Z,85.40
2018-10-09T01:45:43.710Z,84.80
2018-10-09T01:48:11.788Z,84.80
2018-10-09T01:50:39.903Z,84.90
2018-10-09T01:53:07.919Z,84.60
2018-10-09T01:55:35.917Z,84.70
2018-10-09T01:58:04.061Z,84.70
2018-10-09T02:00:32.102Z,84.80
2018-10-09T02:03:00.231Z,84.90
2018-10-09T02:05:28.394Z,84.80
2018-10-09T02:07:56.498Z,85.00
2018-10-09T02:10:27.530Z,84.90
2018-10-09T02:12:55.679Z,85.10
2018-10-09T02:15:23.758Z,85.60
2018-10-09T02:17:51.830Z,85.10
2018-10-09T02:20:22.882Z,85.50
2018-10-09T02:22:50.926Z,85.40
2018-10-09T02:25:18.985Z,85.40
2018-10-09T02:27:46.978Z,85.60
2018-10-09T02:30:15.056Z,85.70
2018-10-09T02:32:43.073Z,85.40
2018-10-09T02:35:11.198Z,85.50
2018-10-09T02:37:39.245Z,85.70
2018-10-09T02:40:07.307Z,85.70
2018-10-09T02:42:35.338Z,86.50
2018-10-09T02:45:03.582Z,85.80
2018-10-09T02:47:32.611Z,85.60
2018-10-09T02:50:00.633Z,85.60
2018-10-09T02:52:29.218Z,85.50
2018-10-09T02:54:57.234Z,85.50
2018-10-09T02:57:25.286Z,86.00
2018-10-09T02:59:53.827Z,86.00
2018-10-09T03:02:21.854Z,86.20
2018-10-09T03:04:49.873Z,86.00
2018-10-09T03:07:17.926Z,85.80
2018-10-09T03:09:46.012Z,86.10
2018-10-09T03:12:14.117Z,86.00
2018-10-09T03:14:42.158Z,86.40
2018-10-09T03:17:10.222Z,86.40
2018-10-09T03:19:38.228Z,86.30
2018-10-09T03:22:06.390Z,86.50
2018-10-09T03:24:34.398Z,86.50
2018-10-09T03:27:02.413Z,87.20
2018-10-09T03:29:30.479Z,86.60
2018-10-09T03:31:58.527Z,86.60
2018-10-09T03:34:26.579Z,86.60
2018-10-09T03:36:54.844Z,86.70
2018-10-09T03:39:22.866Z,86.80
2018-10-09T03:41:50.862Z,86.70
2018-10-09T03:44:18.918Z,86.70
2018-10-09T03:46:46.939Z,86.80
2018-10-09T03:49:16.437Z,87.20
2018-10-09T03:51:44.761Z,86.80
2018-10-09T03:54:12.876Z,87.50
2018-10-09T03:56:40.943Z,87.30
2018-10-09T03:59:09.287Z,87.30
2018-10-09T04:01:37.341Z,87.40
2018-10-09T04:04:05.386Z,87.50
2018-10-09T04:06:33.418Z,87.50
2018-10-09T04:09:01.541Z,87.50
2018-10-09T04:11:29.493Z,87.60
2018-10-09T04:13:57.580Z,88.10
2018-10-09T04:16:25.679Z,89.30
2018-10-09T04:18:53.732Z,89.20
2018-10-09T04:21:21.864Z,88.50
2018-10-09T04:23:49.861Z,88.90
2018-10-09T04:26:17.999Z,88.40
2018-10-09T04:28:46.350Z,88.50
2018-10-09T04:31:14.358Z,88.20
2018-10-09T04:33:42.486Z,88.10
2018-10-09T04:36:10.760Z,88.40
2018-10-09T04:38:38.793Z,88.20
2018-10-09T04:41:06.874Z,87.90
2018-10-09T04:43:35.186Z,88.20
2018-10-09T04:46:03.188Z,88.10
2018-10-09T04:48:31.945Z,88.00
2018-10-09T04:51:00.229Z,87.80
2018-10-09T04:53:28.234Z,87.50
2018-10-09T04:55:56.233Z,88.00
2018-10-09T04:58:24.286Z,88.00
2018-10-09T05:00:52.403Z,88.00
2018-10-09T05:03:20.374Z,88.40
2018-10-09T05:05:48.554Z,89.10
2018-10-09T05:08:16.722Z,88.70
2018-10-09T05:10:44.789Z,88.10
2018-10-09T05:13:13.467Z,88.20
2018-10-09T05:15:41.454Z,89.00
2018-10-09T05:18:09.518Z,88.90
2018-10-09T05:20:37.799Z,88.50
2018-10-09T05:23:06.319Z,88.70
2018-10-09T05:25:34.325Z,88.80
2018-10-09T05:28:02.421Z,89.50
2018-10-09T05:30:30.466Z,89.20
2018-10-09T05:32:58.527Z,89.00
2018-10-09T05:35:26.800Z,89.00
2018-10-09T05:37:54.961Z,88.90
2018-10-09T05:40:23.060Z,89.30
2018-10-09T05:42:51.442Z,89.40
2018-10-09T05:45:19.471Z,89.30
2018-10-09T05:47:47.510Z,89.30
2018-10-09T05:50:16.486Z,89.40
2018-10-09T05:52:44.821Z,89.00
2018-10-09T05:55:12.861Z,88.20
2018-10-09T05:57:41.099Z,87.60
2018-10-09T06:00:09.490Z,87.10
2018-10-09T06:02:37.556Z,87.10
2018-10-09T06:05:06.358Z,87.10
2018-10-09T06:07:34.549Z,86.50
2018-10-09T06:10:02.607Z,86.10
2018-10-09T06:12:30.794Z,85.70
2018-10-09T06:14:58.814Z,84.90
2018-10-09T06:17:26.910Z,83.40
2018-10-09T06:19:54.954Z,82.20
2018-10-09T06:22:23.173Z,81.40
2018-10-09T06:24:51.079Z,80.30
2018-10-09T06:27:20.042Z,78.70
2018-10-09T06:29:48.060Z,77.80
2018-10-09T06:32:16.062Z,77.30
2018-10-09T06:34:44.126Z,76.70
2018-10-09T06:37:12.193Z,75.10
2018-10-09T06:39:40.354Z,73.00
2018-10-09T06:42:08.929Z,71.20
2018-10-09T06:44:37.015Z,70.70
2018-10-09T06:47:05.496Z,70.10
2018-10-09T06:49:33.778Z,69.50
2018-10-09T06:52:02.054Z,68.30
2018-10-09T06:54:30.386Z,67.40
2018-10-09T06:56:58.369Z,64.40
2018-10-09T06:59:26.390Z,61.40
2018-10-09T07:01:54.777Z,59.00
2018-10-09T07:04:23.027Z,57.60
2018-10-09T07:06:51.083Z,56.30
2018-10-09T07:09:19.323Z,56.20
2018-10-09T07:11:47.415Z,57.30
2018-10-09T07:14:15.637Z,57.90
2018-10-09T07:16:43.747Z,58.90
2018-10-09T07:19:12.174Z,60.30
2018-10-09T07:21:40.193Z,61.60
2018-10-09T07:24:08.190Z,62.50
2018-10-09T07:26:36.222Z,61.90
2018-10-09T07:29:04.239Z,60.50
2018-10-09T07:31:32.255Z,58.80
2018-10-09T07:34:00.480Z,57.20
2018-10-09T07:36:28.473Z,56.50
2018-10-09T07:38:56.507Z,56.30
2018-10-09T07:41:24.697Z,56.40
2018-10-09T07:43:52.764Z,56.50
2018-10-09T07:46:20.802Z,56.00
2018-10-09T07:48:49.029Z,55.00
2018-10-09T07:51:17.043Z,53.60
2018-10-09T07:53:45.042Z,52.50
2018-10-09T07:56:13.348Z,52.20
2018-10-09T07:58:41.440Z,52.20
2018-10-09T08:01:09.481Z,53.70
2018-10-09T08:03:37.754Z,54.70
2018-10-09T08:06:05.927Z,55.60
2018-10-09T08:08:34.128Z,55.30
2018-10-09T08:11:02.287Z,55.80
2018-10-09T08:13:30.545Z,56.50
2018-10-09T08:15:58.767Z,57.10
2018-10-09T08:18:27.002Z,57.30
2018-10-09T08:20:55.079Z,56.80
2018-10-09T08:23:23.164Z,56.00
2018-10-09T08:25:51.527Z,55.40
2018-10-09T08:28:19.507Z,54.80
2018-10-09T08:30:47.552Z,54.10
2018-10-09T08:33:15.643Z,53.00
2018-10-09T08:35:43.661Z,51.70
2018-10-09T08:38:11.726Z,50.00
2018-10-09T08:40:40.255Z,48.70
2018-10-09T08:43:08.328Z,47.70
2018-10-09T08:45:36.351Z,46.00
2018-10-09T08:48:04.666Z,45.20
2018-10-09T08:50:32.679Z,43.80
2018-10-09T08:53:00.690Z,43.60
2018-10-09T08:55:28.736Z,44.50
2018-10-09T08:57:57.886Z,44.90
2018-10-09T09:00:25.956Z,45.80
2018-10-09T09:02:54.491Z,46.30
2018-10-09T09:05:22.510Z,47.10
2018-10-09T09:07:50.569Z,48.40
2018-10-09T09:10:18.638Z,49.20
2018-10-09T09:12:46.706Z,49.80
2018-10-09T09:15:15.145Z,50.20
2018-10-09T09:17:43.178Z,50.80
2018-10-09T09:20:11.233Z,51.40
2018-10-09T09:22:39.282Z,51.70
2018-10-09T09:25:07.352Z,52.00
2018-10-09T09:27:35.770Z,52.10
2018-10-09T09:30:03.839Z,51.90
2018-10-09T09:32:31.929Z,50.10
2018-10-09T09:34:59.959Z,48.20
2018-10-09T09:37:28.146Z,44.60
2018-10-09T09:39:56.152Z,41.30
2018-10-09T09:42:24.268Z,39.30
2018-10-09T09:44:52.304Z,38.50
2018-10-09T09:47:20.336Z,38.40
2018-10-09T09:49:48.387Z,38.60
2018-10-09T09:52:16.497Z,37.20
2018-10-09T09:54:45.549Z,36.20
2018-10-09T09:57:13.653Z,36.90
2018-10-09T09:59:42.017Z,37.30
2018-10-09T10:02:10.074Z,37.50
2018-10-09T10:04:38.126Z,37.90
2018-10-09T10:07:06.339Z,37.70
2018-10-09T10:09:34.426Z,38.40
2018-10-09T10:12:02.555Z,38.40
2018-10-09T10:14:31.167Z,38.10
2018-10-09T10:16:59.303Z,37.60
2018-10-09T10:19:27.314Z,36.80
2018-10-09T10:21:55.686Z,36.90
2018-10-09T10:24:23.735Z,37.30
2018-10-09T10:26:51.819Z,39.00
2018-10-09T10:29:20.325Z,40.60
2018-10-09T10:31:48.258Z,41.70
2018-10-09T10:34:16.270Z,42.50
2018-10-09T10:36:44.387Z,43.90
2018-10-09T10:39:13.041Z,44.30
2018-10-09T10:41:41.778Z,44.80
2018-10-09T10:44:10.274Z,45.20
2018-10-09T10:46:39.074Z,44.80
2018-10-09T10:49:10.970Z,45.00
2018-10-09T10:51:39.279Z,45.30
2018-10-09T10:54:07.311Z,45.20
2018-10-09T10:56:36.146Z,45.40
2018-10-09T10:59:04.436Z,45.10
2018-10-09T11:01:32.815Z,45.10
2018-10-09T11:04:01.069Z,44.70
2018-10-09T11:06:29.262Z,45.10
2018-10-09T11:08:57.269Z,43.90
2018-10-09T11:11:25.326Z,44.10
2018-10-09T11:13:53.375Z,43.40
2018-10-09T11:16:21.445Z,42.80
2018-10-09T11:18:49.807Z,42.60
2018-10-09T11:21:17.909Z,44.10
2018-10-09T11:23:45.826Z,42.90
2018-10-09T11:26:13.935Z,43.70
2018-10-09T11:28:42.001Z,43.50
2018-10-09T11:33:44.898Z,43.70
2018-10-09T11:36:13.006Z,44.10
2018-10-09T11:38:41.019Z,43.70
2018-10-09T11:41:09.114Z,44.20
2018-10-09T11:43:37.238Z,43.80
2018-10-09T11:46:05.259Z,43.90
2018-10-09T11:48:33.363Z,44.00
2018-10-09T11:51:01.403Z,43.80
2018-10-09T11:53:29.451Z,43.90
2018-10-09T11:55:57.464Z,43.90
2018-10-09T11:58:25.494Z,44.00
2018-10-09T12:00:55.427Z,44.10
2018-10-09T12:03:23.669Z,44.20
2018-10-09T12:05:51.778Z,44.10
2018-10-09T12:08:20.262Z,43.80
2018-10-09T12:10:48.451Z,43.80
2018-10-09T12:13:16.483Z,43.60
2018-10-09T12:15:44.541Z,43.60
2018-10-09T12:18:12.601Z,44.10
2018-10-09T12:20:40.815Z,44.10
2018-10-09T12:23:09.121Z,44.00
2018-10-09T12:25:37.144Z,44.10
2018-10-09T12:28:05.139Z,44.60
2018-10-09T12:30:33.147Z,44.40
2018-10-09T12:33:01.325Z,44.80
2018-10-09T12:35:29.350Z,45.00
2018-10-09T12:37:57.516Z,45.30
2018-10-09T12:40:25.551Z,44.00
2018-10-09T12:42:53.544Z,44.10
2018-10-09T12:45:22.139Z,44.10
2018-10-09T12:47:50.185Z,44.20
2018-10-09T12:50:18.302Z,44.90
2018-10-09T12:52:46.595Z,45.30
2018-10-09T12:55:15.261Z,45.60
2018-10-09T12:57:43.314Z,45.30
2018-10-09T13:00:13.053Z,45.10
2018-10-09T13:02:41.110Z,45.20
2018-10-09T13:05:09.515Z,45.40
2018-10-09T13:07:37.558Z,45.30
2018-10-09T13:10:05.820Z,45.50
2018-10-09T13:12:33.838Z,45.70
2018-10-09T13:15:02.031Z,45.70
2018-10-09T13:17:30.326Z,45.90
2018-10-09T13:19:58.346Z,46.40
2018-10-09T13:22:26.891Z,46.40
2018-10-09T13:24:54.692Z,46.30
2018-10-09T13:27:22.828Z,46.20
2018-10-09T13:29:50.943Z,46.10
2018-10-09T13:32:19.078Z,46.20
2018-10-09T13:34:47.078Z,46.30
2018-10-09T13:37:15.791Z,46.70
2018-10-09T13:39:43.983Z,47.00
2018-10-09T13:42:12.257Z,47.00
2018-10-09T13:44:40.458Z,47.10
2018-10-09T13:47:08.568Z,46.70
2018-10-09T13:49:36.590Z,46.70
2018-10-09T13:52:04.713Z,46.70
2018-10-09T13:54:32.759Z,46.40
2018-10-09T13:57:00.869Z,46.30
2018-10-09T13:59:28.902Z,46.40
2018-10-09T14:01:57.098Z,46.20
2018-10-09T14:04:25.102Z,46.00
2018-10-09T14:06:53.712Z,46.00
2018-10-09T14:09:21.824Z,46.30
2018-10-09T14:11:49.881Z,46.80
2018-10-09T14:14:18.173Z,46.80
2018-10-09T14:16:46.522Z,47.20
2018-10-09T14:19:14.547Z,47.50
2018-10-09T14:21:43.259Z,48.40
2018-10-09T14:24:12.105Z,49.10
2018-10-09T14:26:40.323Z,49.90
2018-10-09T14:29:08.391Z,50.50
2018-10-09T14:31:36.523Z,50.80
2018-10-09T14:34:04.589Z,51.40
2018-10-09T14:36:32.629Z,51.80
2018-10-09T14:39:00.771Z,51.80
2018-10-09T14:41:28.887Z,52.10
2018-10-09T14:43:57.691Z,52.30
2018-10-09T14:46:25.655Z,52.50
2018-10-09T14:48:53.659Z,52.40
2018-10-09T14:51:21.763Z,52.80
2018-10-09T14:53:49.751Z,52.60
2018-10-09T14:56:17.785Z,53.10
2018-10-09T14:58:46.092Z,53.40
2018-10-09T15:01:14.175Z,53.90
2018-10-09T15:03:42.474Z,54.00
2018-10-09T15:06:41.223Z,54.20
2018-10-09T15:09:11.434Z,54.10
2018-10-09T15:11:39.450Z,54.40
2018-10-09T15:14:08.325Z,54.40
2018-10-09T15:16:36.514Z,54.60
2018-10-09T15:19:05.058Z,54.70
2018-10-09T15:21:33.164Z,54.70
2018-10-09T15:24:01.193Z,54.80
2018-10-09T15:26:29.279Z,55.00
2018-10-09T15:28:57.466Z,54.90
2018-10-09T15:31:25.533Z,55.00
2018-10-09T15:33:53.575Z,55.40
2018-10-09T15:36:21.638Z,55.40
2018-10-09T15:38:50.175Z,55.50
2018-10-09T15:41:18.688Z,55.70
2018-10-09T15:43:46.790Z,56.10
2018-10-09T15:46:14.860Z,56.40
2018-10-09T15:48:43.250Z,56.60
2018-10-09T15:51:11.314Z,57.10
2018-10-09T15:53:39.347Z,57.40
2018-10-09T15:56:07.601Z,58.20
2018-10-09T15:58:35.607Z,58.30
2018-10-09T16:01:03.621Z,58.50
2018-10-09T16:03:31.770Z,58.80
2018-10-09T16:05:59.817Z,59.60
2018-10-09T16:08:27.836Z,59.80
2018-10-09T16:10:56.300Z,60.40
2018-10-09T16:13:24.360Z,61.00
2018-10-09T16:15:52.401Z,62.10
2018-10-09T16:18:20.494Z,62.50
2018-10-09T16:20:48.735Z,63.20
2018-10-09T16:23:16.968Z,63.90
2018-10-09T16:25:45.209Z,64.00
2018-10-09T16:28:13.321Z,64.50
2018-10-09T16:30:41.363Z,65.10
2018-10-09T16:33:09.420Z,65.60
2018-10-09T16:35:37.494Z,66.10
2018-10-09T16:38:05.572Z,66.80
2018-10-09T16:40:33.950Z,66.80
2018-10-09T16:43:01.927Z,67.60
2018-10-09T16:45:30.047Z,68.50
2018-10-09T16:47:58.267Z,68.70
2018-10-09T16:50:26.541Z,68.90
2018-10-09T16:52:54.544Z,69.00
2018-10-09T16:55:22.993Z,68.60
2018-10-09T16:57:51.070Z,69.60
2018-10-09T17:00:19.147Z,70.90
2018-10-09T17:02:47.274Z,71.30
2018-10-09T17:05:15.396Z,71.50
2018-10-09T17:07:43.522Z,72.40
2018-10-09T17:10:11.552Z,71.70
2018-10-09T17:12:39.794Z,72.20
2018-10-09T17:15:07.887Z,72.60
2018-10-09T17:17:36.142Z,73.30
2018-10-09T17:20:04.387Z,73.40
2018-10-09T17:22:32.613Z,73.50
2018-10-09T17:25:00.754Z,74.20
2018-10-09T17:27:28.774Z,74.30
2018-10-09T17:29:56.931Z,74.70
2018-10-09T17:32:24.991Z,74.80
2018-10-09T17:34:53.066Z,75.50
2018-10-09T17:37:21.136Z,75.10
2018-10-09T17:39:49.433Z,75.60
2018-10-09T17:42:17.480Z,76.00
2018-10-09T17:44:45.768Z,76.00
2018-10-09T17:47:17.233Z,76.30
2018-10-09T17:49:45.748Z,76.50
2018-10-09T17:52:13.966Z,76.80
2018-10-09T17:54:42.018Z,77.10
2018-10-09T17:59:53.034Z,78.10
2018-10-09T18:02:21.243Z,78.40
2018-10-09T18:04:49.581Z,78.30
2018-10-09T18:07:17.847Z,78.80
2018-10-09T18:09:46.550Z,79.00
2018-10-09T18:12:14.791Z,79.20
2018-10-09T18:14:43.164Z,79.20
2018-10-09T18:17:11.164Z,79.10
2018-10-09T18:19:39.452Z,79.10
2018-10-09T18:22:07.601Z,79.80
2018-10-09T18:24:35.672Z,80.00
2018-10-09T18:27:03.706Z,80.20
2018-10-09T18:29:32.242Z,80.10
2018-10-09T18:32:00.340Z,80.00
2018-10-09T18:34:28.378Z,79.80
2018-10-09T18:36:56.430Z,80.30
2018-10-09T18:39:24.456Z,80.40
2018-10-09T18:41:52.662Z,80.30
2018-10-09T18:44:20.675Z,80.10
2018-10-09T18:46:48.710Z,80.50
2018-10-09T18:49:16.812Z,80.60
2018-10-09T18:51:45.135Z,80.30
2018-10-09T18:54:13.397Z,80.70
2018-10-09T18:56:41.485Z,80.70
2018-10-09T18:59:09.702Z,80.60
2018-10-09T19:01:37.767Z,81.10
2018-10-09T19:04:06.287Z,81.40
2018-10-09T19:06:34.531Z,82.00
2018-10-09T19:09:03.054Z,81.80
2018-10-09T19:11:31.064Z,82.10
2018-10-09T19:13:59.133Z,82.00
2018-10-09T19:16:27.402Z,81.70
2018-10-09T19:18:55.438Z,81.50
2018-10-09T19:21:23.976Z,82.10
2018-10-09T19:23:52.138Z,81.90
2018-10-09T19:26:20.110Z,82.30
2018-10-09T19:28:48.606Z,82.80
2018-10-09T19:31:16.883Z,83.60
2018-10-09T19:33:45.039Z,83.90
2018-10-09T19:36:13.288Z,84.10
2018-10-09T19:38:41.366Z,84.20
2018-10-09T19:41:09.612Z,84.40
2018-10-09T19:43:37.844Z,84.00
2018-10-09T19:46:05.922Z,84.00
2018-10-09T19:48:34.211Z,83.70
2018-10-09T19:51:02.596Z,84.20
2018-10-09T19:53:30.846Z,84.00
2018-10-09T19:55:59.394Z,84.20
2018-10-09T19:58:27.715Z,83.90
2018-10-09T20:00:55.740Z,83.80
2018-10-09T20:03:23.743Z,83.80
2018-10-09T20:05:52.126Z,83.90
2018-10-09T20:08:20.223Z,84.30
2018-10-09T20:10:48.272Z,84.40
2018-10-09T20:13:22.128Z,84.60
2018-10-09T20:15:50.357Z,84.40
2018-10-09T20:18:18.621Z,84.80
2018-10-09T20:20:46.679Z,84.80
2018-10-09T20:23:14.758Z,85.40
2018-10-09T20:25:42.758Z,85.20
2018-10-09T20:28:10.836Z,85.00
2018-10-09T20:30:38.904Z,85.20
2018-10-09T20:33:07.053Z,85.10
2018-10-09T20:35:35.686Z,85.90
2018-10-09T20:38:03.707Z,86.20
2018-10-09T20:40:31.925Z,87.00
2018-10-09T20:43:00.147Z,86.00
2018-10-09T20:45:28.171Z,86.10
2018-10-09T20:47:56.200Z,86.10
2018-10-09T20:50:24.435Z,86.20
2018-10-09T20:52:52.434Z,86.90
2018-10-09T20:55:20.418Z,87.30
2018-10-09T20:57:48.430Z,86.90
2018-10-09T21:00:16.679Z,87.10
2018-10-09T21:02:44.751Z,86.90
2018-10-09T21:05:13.036Z,87.20
2018-10-09T21:07:41.062Z,87.10
2018-10-09T21:10:09.742Z,86.90
2018-10-09T21:12:38.236Z,87.20
2018-10-09T21:15:06.274Z,87.50
2018-10-09T21:17:34.616Z,87.50
2018-10-09T21:20:03.178Z,87.90
2018-10-09T21:22:31.347Z,87.80
2018-10-09T21:24:59.494Z,87.70
2018-10-09T21:27:27.530Z,87.90
2018-10-09T21:29:55.631Z,87.90
2018-10-09T21:32:23.630Z,88.00
2018-10-09T21:34:51.922Z,88.40
2018-10-09T21:37:19.963Z,88.70
2018-10-09T21:39:48.046Z,88.60
2018-10-09T21:42:16.169Z,88.60
2018-10-09T21:44:44.525Z,88.60
2018-10-09T21:47:12.554Z,88.70
2018-10-09T21:49:40.639Z,88.90
2018-10-09T21:52:08.897Z,88.60
2018-10-09T21:54:36.923Z,89.10
2018-10-09T21:57:04.988Z,88.90
2018-10-09T21:59:33.016Z,88.70
2018-10-09T22:02:01.175Z,89.00
2018-10-09T22:04:29.214Z,88.90
2018-10-09T22:06:57.225Z,89.00
2018-10-09T22:09:25.507Z,89.70
2018-10-09T22:11:53.938Z,89.10
2018-10-09T22:14:22.567Z,89.30
2018-10-09T22:16:50.591Z,89.20
2018-10-09T22:19:18.635Z,89.60
2018-10-09T22:21:47.410Z,90.60
2018-10-09T22:24:15.505Z,90.10
2018-10-09T22:26:43.530Z,90.30
2018-10-09T22:29:11.550Z,90.70
2018-10-09T22:31:39.630Z,90.00
2018-10-09T22:34:08.378Z,89.10
2018-10-09T22:36:36.466Z,89.20
2018-10-09T22:39:07.089Z,89.60
2018-10-09T22:41:35.146Z,89.60
2018-10-09T22:44:03.233Z,89.60
2018-10-09T22:46:31.424Z,89.50
2018-10-09T22:48:59.450Z,89.80
2018-10-09T22:51:27.537Z,90.00
2018-10-09T22:53:55.810Z,91.30
2018-10-09T22:56:23.822Z,90.80
2018-10-09T22:58:51.862Z,90.30
2018-10-09T23:01:20.034Z,90.10
2018-10-09T23:03:48.067Z,90.10
2018-10-09T23:06:16.129Z,90.00
2018-10-09T23:08:44.663Z,90.10
2018-10-09T23:11:12.685Z,90.00
2018-10-09T23:13:40.690Z,90.10
2018-10-09T23:16:09.275Z,90.40
2018-10-09T23:18:37.448Z,90.50
2018-10-09T23:21:05.564Z,90.10
2018-10-09T23:23:33.882Z,90.30
2018-10-09T23:26:01.912Z,90.20
2018-10-09T23:28:29.926Z,90.30
2018-10-09T23:30:58.048Z,90.40
2018-10-09T23:33:26.233Z,90.10
2018-10-09T23:35:54.272Z,90.00
2018-10-09T23:38:22.322Z,90.00
2018-10-09T23:40:50.440Z,90.00
2018-10-09T23:43:18.566Z,90.60
2018-10-09T23:45:47.154Z,90.60
2018-10-09T23:48:15.211Z,90.20
2018-10-09T23:50:43.390Z,90.10
2018-10-09T23:53:11.519Z,90.00
2018-10-09T23:55:39.544Z,90.10
2018-10-09T23:58:07.706Z,90.20
